• Join FlightAware (Why Join?)
  • Login
  • US Flag 
08:13PM EDT


 

Airport Tracker/Info


-or-


 

Live Flight TrackerFlight Track Log ✈ BJS524 ✈ 19-Jul-2013 ✈ KPWM - KTEB

Flight Track Log - Related Links

Times and Time Zones

All times are in EDT time to prevent confusion due to time zone crossing. See the BJS524 flight status page for this flight to view local times or setup timezone preferences in your user account.

Time Position Orientation Groundspeed Altitude Reporting Facility
EDT Latitude Longitude Course Direction KTS MPH feet Rate Location/Type
04:46PM 43.6558 -70.4142 300° West 188 216 4,500  Level Boston Center
04:47PM 43.6906 -70.4961 300° West 231 266 9,000 3,840 Climbing Boston Center
04:48PM 43.7256 -70.5928 297° West 262 302 12,200 2,940 Climbing Boston Center
04:49PM 43.7625 -70.6836 299° West 295 339 14,900 2,760 Climbing Boston Center
04:50PM 43.7747 -70.8183 277° West 319 367 17,800 2,760 Climbing Boston Center
04:51PM 43.7367 -70.9286 245° Southwest 319 367 20,500 2,100 Climbing Boston Center
04:52PM 43.6925 -71.0561 244° Southwest 347 399 22,100 1,200 Climbing Boston Center
04:53PM 43.6483 -71.1978 247° West 374 430 23,000 780 Climbing Boston Center
04:54PM 43.6017 -71.3419 246° West 401 461 23,700 1,680 Climbing Boston Center
04:55PM 43.5572 -71.4803 246° West 407 468 26,400 2,100 Climbing Boston Center
04:56PM 43.5103 -71.6214 245° Southwest 402 463 27,900 780 Climbing Boston Center
04:57PM 43.4592 -71.7708 245° Southwest 415 478 28,000  Climbing Boston Center
04:58PM 43.4078 -71.9228 245° Southwest 429 494 28,000  Level Boston Center
04:59PM 43.3542 -72.0747 244° Southwest 440 506 28,000 -780 Level Boston Center
05:00PM 43.3025 -72.2261 245° Southwest 446 513 26,500 -1,800 Descending Boston Center
05:01PM 43.2569 -72.3689 246° West 434 499 24,400 -1,800 Descending Boston Center
05:02PM 43.2089 -72.5083 245° Southwest 415 478 23,000 -1,200 Descending Boston Center
05:03PM 43.1631 -72.6422 245° Southwest 404 465 22,000 -540 Descending Boston Center
05:04PM 43.1064 -72.7869 242° Southwest 398 458 22,000  Level Boston Center
05:05PM 43.0600 -72.9231 245° Southwest 393 452 22,000  Level Boston Center
05:06PM 43.0156 -73.0647 247° West 403 464 22,000 -180 Level Boston Center
05:07PM 42.9689 -73.1978 244° Southwest 403 464 21,700 -780 Descending Boston Center
05:08PM 42.9200 -73.3331 244° Southwest 403 464 20,500 -1,200 Descending Boston Center
05:09PM 42.8775 -73.4403 242° Southwest 403 464 19,300 -1,620 Descending Boston Center
05:10PM 42.8239 -73.5922 244° Southwest 386 444 17,300 -1,680 Descending Boston Center
05:11PM 42.7786 -73.7272 245° Southwest 385 443 16,000 -660 Descending Boston Center
05:12PM 42.7211 -73.8389 235° Southwest 379 436 16,000  Level Boston Center
05:13PM 42.6264 -73.9017 206° Southwest 368 423 16,000  Level Boston Center
05:14PM 42.5403 -73.9589 206° Southwest 379 436 16,000  Level Boston Center
05:15PM 42.4392 -74.0325 208° Southwest 384 442 16,000  Level Boston Center
05:16PM 42.3592 -74.0922 209° Southwest 375 432 16,000 -540 Level Boston Center
05:17PM 42.2581 -74.1681 209° Southwest 375 432 15,000 -1,260 Descending Boston Center
05:18PM 42.1758 -74.2275 208° Southwest 380 437 13,600 -1,440 Descending Boston Center
05:19PM 42.0914 -74.2894 209° Southwest 380 437 12,200 -780 Descending Boston Center
05:20PM 41.9944 -74.3592 208° Southwest 375 432 12,100 -60 Descending Boston Center
05:21PM 41.8972 -74.4286 208° Southwest 370 426 12,100 -480 Level Boston Center
05:22PM 41.8297 -74.4767 208° Southwest 341 392 11,200 -1,260 Descending Boston Center
05:23PM 41.7539 -74.5272 206° Southwest 294 338 9,600 -1,500 Descending Boston Center
05:24PM 41.6869 -74.5389 187° South 269 310 8,300 -1,260 Descending Boston Center
05:25PM 41.6075 -74.5558 189° South 259 298 7,100 -1,140 Descending Boston Center
05:26PM 41.5406 -74.5675 187° South 264 304 6,100 -540 Descending Boston Center
05:27PM 41.4608 -74.5842 189° South 264 304 6,100 -300 Level Boston Center
05:29PM 41.3167 -74.5667 175° South 295 339 5,200 -600 Descending New York TRACON
05:30PM 41.2667 -74.4833 129° Southeast 283 326 4,300 -600 Descending New York TRACON
05:31PM 41.2167 -74.4000 129° Southeast 273 314 4,100 -420 Descending New York TRACON
05:32PM 41.1667 -74.3000 124° Southeast 272 313 3,500 -540 Descending New York TRACON
05:33PM 41.1333 -74.2333 124° Southeast 277 319 3,100 -240 Descending New York TRACON
05:34PM 41.0833 -74.1500 129° Southeast 275 316 3,100 -480 Level New York TRACON
05:35PM 41.0333 -74.0833 135° Southeast 266 306 2,100 -540 Descending New York TRACON
05:36PM 40.9667 -74.0500 159° South 215 247 2,100 -420 Level New York TRACON
05:37PM 40.9167 -74.0500 180° South 176 203 1,300 -840 Descending New York TRACON
05:38PM 40.8833 -74.0500 180° South 141 162 600 -780 Descending New York TRACON
05:40PM 40.8500 -74.0500 154° Southeast  Level FlightAware Approximate
05:47PM 40.8501 -74.0608 154° Southeast  Level Estimated
05:48PM 40.8501 -74.0608 154° Southeast  Level Estimated
05:49PM 40.8501 -74.0608 154° Southeast  Level Estimated